KMTJ/MTJ METAR and TAF weather

Enter ICAO airport designator
Station Type Date Time Source
KMTJ METAR 2022/01/27 22:53 UTC NOAA

KMTJ 272253Z AUTO 14004KT 10SM OVC070 M01/M07 A3034 RMK AO2 SLP296 T10061072


Station Type Date Time Source
KMTJ Decoded METAR 2022/01/27 22:53 UTC NOAA

MONTROSE REGIONAL AIRPORT, CO, United States (KMTJ) 38-30N 107-54W 1750M
Jan 27, 2022 - 05:53 PM EST / 2022.01.27 2253 UTC
Wind: from the SE (140 degrees) at 5 MPH (4 KT):0
Visibility: 10 mile(s):0
Sky conditions: overcast
Temperature: 30.9 F (-0.6 C)
Windchill: 26 F (-3 C):1
Dew Point: 19.0 F (-7.2 C)
Relative Humidity: 60%
Pressure (altimeter): 30.34 in. Hg (1027 hPa)
ob: KMTJ 272253Z AUTO 14004KT 10SM OVC070 M01/M07 A3034 RMK AO2 SLP296 T10061072
cycle: 23

Station Type Date Time Source
KMTJ TAF 2022/01/27 18:40 UTC NOAA

TAF KMTJ 271737Z 2718/2818 31006KT P6SM BKN080
FM272100 32010G20KT P6SM VCSH SCT040 BKN070
FM280200 15007KT P6SM FEW040 SCT100
FM280600 15004KT P6SM FEW100

Example: see airport list